sensor_id;sensor_type;location;lat;lon;timestamp;P1;durP1;ratioP1;P2;durP2;ratioP2
12842;SDS011;35724;49.324;-123.118;2024-02-26T00:06:37;4.68;;;1.50;;
12842;SDS011;35724;49.324;-123.118;2024-02-26T00:17:12;3.42;;;1.48;;
12842;SDS011;35724;49.324;-123.118;2024-02-26T00:28:24;2.88;;;1.10;;
12842;SDS011;35724;49.324;-123.118;2024-02-26T00:39:28;3.83;;;1.25;;
12842;SDS011;35724;49.324;-123.118;2024-02-26T00:50:33;1.70;;;1.00;;
12842;SDS011;35724;49.324;-123.118;2024-02-26T01:00:58;3.38;;;1.73;;
12842;SDS011;35724;49.324;-123.118;2024-02-26T01:11:50;4.43;;;1.83;;
12842;SDS011;35724;49.324;-123.118;2024-02-26T01:22:56;3.70;;;1.70;;
12842;SDS011;35724;49.324;-123.118;2024-02-26T01:44:46;4.80;;;1.75;;
12842;SDS011;35724;49.324;-123.118;2024-02-26T01:56:16;4.80;;;2.05;;
12842;SDS011;35724;49.324;-123.118;2024-02-26T02:07:07;4.32;;;1.67;;
12842;SDS011;35724;49.324;-123.118;2024-02-26T02:18:08;5.35;;;2.10;;
12842;SDS011;35724;49.324;-123.118;2024-02-26T02:40:58;3.72;;;1.70;;
12842;SDS011;35724;49.324;-123.118;2024-02-26T02:52:37;3.80;;;1.90;;
12842;SDS011;35724;49.324;-123.118;2024-02-26T03:14:21;2.88;;;1.48;;
12842;SDS011;35724;49.324;-123.118;2024-02-26T03:24:45;2.53;;;1.40;;
12842;SDS011;35724;49.324;-123.118;2024-02-26T03:35:09;5.45;;;2.80;;
12842;SDS011;35724;49.324;-123.118;2024-02-26T03:56:43;2.70;;;1.00;;
12842;SDS011;35724;49.324;-123.118;2024-02-26T04:07:27;2.30;;;1.30;;
12842;SDS011;35724;49.324;-123.118;2024-02-26T04:18:00;1.30;;;0.80;;
12842;SDS011;35724;49.324;-123.118;2024-02-26T04:28:49;2.70;;;0.93;;
12842;SDS011;35724;49.324;-123.118;2024-02-26T05:02:25;4.10;;;1.48;;
12842;SDS011;35724;49.324;-123.118;2024-02-26T05:13:47;2.03;;;1.00;;
12842;SDS011;35724;49.324;-123.118;2024-02-26T05:24:38;2.78;;;1.27;;
12842;SDS011;35724;49.324;-123.118;2024-02-26T06:33:16;2.33;;;1.55;;
12842;SDS011;35724;49.324;-123.118;2024-02-26T06:44:33;2.90;;;1.50;;
12842;SDS011;35724;49.324;-123.118;2024-02-26T07:17:23;2.22;;;1.50;;
12842;SDS011;35724;49.324;-123.118;2024-02-26T07:28:43;2.90;;;1.58;;
12842;SDS011;35724;49.324;-123.118;2024-02-26T07:51:19;2.05;;;1.63;;
12842;SDS011;35724;49.324;-123.118;2024-02-26T08:14:08;2.20;;;1.40;;
12842;SDS011;35724;49.324;-123.118;2024-02-26T08:25:42;2.45;;;1.38;;
12842;SDS011;35724;49.324;-123.118;2024-02-26T08:47:40;2.25;;;0.90;;
12842;SDS011;35724;49.324;-123.118;2024-02-26T08:58:47;1.02;;;0.75;;
12842;SDS011;35724;49.324;-123.118;2024-02-26T09:09:52;0.80;;;0.80;;
12842;SDS011;35724;49.324;-123.118;2024-02-26T09:20:54;0.90;;;0.80;;
12842;SDS011;35724;49.324;-123.118;2024-02-26T09:31:44;1.52;;;0.80;;
12842;SDS011;35724;49.324;-123.118;2024-02-26T09:42:27;1.15;;;0.68;;
12842;SDS011;35724;49.324;-123.118;2024-02-26T09:52:58;1.75;;;0.82;;
12842;SDS011;35724;49.324;-123.118;2024-02-26T10:03:41;1.15;;;0.90;;
12842;SDS011;35724;49.324;-123.118;2024-02-26T10:25:52;1.92;;;0.90;;
12842;SDS011;35724;49.324;-123.118;2024-02-26T10:48:25;1.20;;;0.90;;
12842;SDS011;35724;49.324;-123.118;2024-02-26T11:10:30;1.65;;;1.00;;
12842;SDS011;35724;49.324;-123.118;2024-02-26T11:31:57;1.52;;;1.10;;
12842;SDS011;35724;49.324;-123.118;2024-02-26T11:43:01;1.70;;;1.15;;
12842;SDS011;35724;49.324;-123.118;2024-02-26T11:53:47;0.95;;;0.80;;
12842;SDS011;35724;49.324;-123.118;2024-02-26T12:04:45;1.33;;;1.10;;
12842;SDS011;35724;49.324;-123.118;2024-02-26T12:15:18;0.88;;;0.82;;
12842;SDS011;35724;49.324;-123.118;2024-02-26T12:26:00;1.25;;;0.80;;
12842;SDS011;35724;49.324;-123.118;2024-02-26T12:36:43;1.45;;;0.70;;
12842;SDS011;35724;49.324;-123.118;2024-02-26T12:47:33;0.82;;;0.75;;
12842;SDS011;35724;49.324;-123.118;2024-02-26T12:58:06;2.03;;;0.90;;
12842;SDS011;35724;49.324;-123.118;2024-02-26T13:08:55;2.50;;;1.00;;
12842;SDS011;35724;49.324;-123.118;2024-02-26T13:19:34;1.70;;;1.00;;
12842;SDS011;35724;49.324;-123.118;2024-02-26T13:30:30;2.37;;;1.13;;
12842;SDS011;35724;49.324;-123.118;2024-02-26T13:41:35;1.60;;;0.80;;
12842;SDS011;35724;49.324;-123.118;2024-02-26T13:52:01;1.30;;;0.88;;
12842;SDS011;35724;49.324;-123.118;2024-02-26T14:05:06;1.90;;;0.80;;
12842;SDS011;35724;49.324;-123.118;2024-02-26T14:13:59;0.90;;;0.90;;
12842;SDS011;35724;49.324;-123.118;2024-02-26T14:36:20;1.00;;;0.80;;
12842;SDS011;35724;49.324;-123.118;2024-02-26T14:46:41;0.97;;;0.80;;
12842;SDS011;35724;49.324;-123.118;2024-02-26T15:08:01;1.98;;;1.08;;
12842;SDS011;35724;49.324;-123.118;2024-02-26T15:18:30;1.70;;;0.93;;
12842;SDS011;35724;49.324;-123.118;2024-02-26T15:28:52;1.98;;;0.98;;
12842;SDS011;35724;49.324;-123.118;2024-02-26T16:01:19;2.15;;;1.67;;
12842;SDS011;35724;49.324;-123.118;2024-02-26T16:12:08;1.80;;;1.70;;
12842;SDS011;35724;49.324;-123.118;2024-02-26T16:22:50;2.88;;;1.60;;
12842;SDS011;35724;49.324;-123.118;2024-02-26T16:33:44;1.48;;;1.20;;
12842;SDS011;35724;49.324;-123.118;2024-02-26T16:44:01;1.38;;;1.13;;
12842;SDS011;35724;49.324;-123.118;2024-02-26T16:54:31;1.33;;;1.05;;
12842;SDS011;35724;49.324;-123.118;2024-02-26T17:04:52;2.28;;;1.00;;
12842;SDS011;35724;49.324;-123.118;2024-02-26T17:26:08;3.42;;;1.23;;
12842;SDS011;35724;49.324;-123.118;2024-02-26T17:36:46;3.70;;;1.45;;
12842;SDS011;35724;49.324;-123.118;2024-02-26T17:47:27;3.30;;;1.08;;
12842;SDS011;35724;49.324;-123.118;2024-02-26T17:58:17;2.65;;;1.20;;
12842;SDS011;35724;49.324;-123.118;2024-02-26T18:09:06;4.47;;;1.50;;
12842;SDS011;35724;49.324;-123.118;2024-02-26T18:20:15;4.63;;;1.60;;
12842;SDS011;35724;49.324;-123.118;2024-02-26T18:30:25;3.00;;;1.20;;
12842;SDS011;35724;49.324;-123.118;2024-02-26T18:40:48;3.78;;;1.50;;
12842;SDS011;35724;49.324;-123.118;2024-02-26T18:51:13;5.20;;;1.63;;
12842;SDS011;35724;49.324;-123.118;2024-02-26T19:01:53;3.97;;;1.50;;
12842;SDS011;35724;49.324;-123.118;2024-02-26T19:12:06;5.07;;;1.60;;
12842;SDS011;35724;49.324;-123.118;2024-02-26T19:22:31;2.53;;;1.20;;
12842;SDS011;35724;49.324;-123.118;2024-02-26T19:33:00;3.58;;;1.30;;
12842;SDS011;35724;49.324;-123.118;2024-02-26T19:43:31;2.83;;;1.17;;
12842;SDS011;35724;49.324;-123.118;2024-02-26T19:53:45;4.95;;;1.85;;
12842;SDS011;35724;49.324;-123.118;2024-02-26T20:04:38;5.20;;;1.40;;
12842;SDS011;35724;49.324;-123.118;2024-02-26T20:14:56;5.80;;;1.80;;
12842;SDS011;35724;49.324;-123.118;2024-02-26T20:36:21;3.58;;;1.48;;
12842;SDS011;35724;49.324;-123.118;2024-02-26T20:47:10;5.25;;;1.98;;
12842;SDS011;35724;49.324;-123.118;2024-02-26T20:57:54;6.15;;;1.80;;
12842;SDS011;35724;49.324;-123.118;2024-02-26T21:08:09;3.78;;;1.40;;
12842;SDS011;35724;49.324;-123.118;2024-02-26T21:18:41;5.38;;;1.20;;
12842;SDS011;35724;49.324;-123.118;2024-02-26T21:28:59;3.70;;;1.60;;
12842;SDS011;35724;49.324;-123.118;2024-02-26T21:39:11;3.42;;;1.73;;
12842;SDS011;35724;49.324;-123.118;2024-02-26T22:00:10;1.50;;;1.05;;
12842;SDS011;35724;49.324;-123.118;2024-02-26T22:11:02;4.53;;;1.40;;
12842;SDS011;35724;49.324;-123.118;2024-02-26T22:21:39;2.22;;;0.90;;
12842;SDS011;35724;49.324;-123.118;2024-02-26T22:32:13;2.17;;;1.10;;
12842;SDS011;35724;49.324;-123.118;2024-02-26T22:42:38;1.20;;;0.90;;
12842;SDS011;35724;49.324;-123.118;2024-02-26T22:52:57;1.10;;;0.80;;
12842;SDS011;35724;49.324;-123.118;2024-02-26T23:03:14;1.40;;;0.88;;
12842;SDS011;35724;49.324;-123.118;2024-02-26T23:13:26;2.25;;;1.13;;
12842;SDS011;35724;49.324;-123.118;2024-02-26T23:23:53;2.05;;;1.00;;
12842;SDS011;35724;49.324;-123.118;2024-02-26T23:34:33;1.95;;;0.85;;
12842;SDS011;35724;49.324;-123.118;2024-02-26T23:45:25;3.20;;;1.02;;
12842;SDS011;35724;49.324;-123.118;2024-02-26T23:55:46;2.78;;;1.10;;
